sensor_id;sensor_type;location;lat;lon;timestamp;temperature;humidity
60717;DHT22;46566;52.700;6.192;2023-05-24T00:01:17;9.90;99.90
60717;DHT22;46566;52.700;6.192;2023-05-24T00:03:54;9.90;99.90
60717;DHT22;46566;52.700;6.192;2023-05-24T00:06:26;9.90;99.90
60717;DHT22;46566;52.700;6.192;2023-05-24T00:08:53;9.90;99.90
60717;DHT22;46566;52.700;6.192;2023-05-24T00:11:19;9.80;99.90
60717;DHT22;46566;52.700;6.192;2023-05-24T00:13:45;9.80;99.90
60717;DHT22;46566;52.700;6.192;2023-05-24T00:16:11;9.80;99.90
60717;DHT22;46566;52.700;6.192;2023-05-24T00:18:37;9.70;99.90
60717;DHT22;46566;52.700;6.192;2023-05-24T00:21:09;9.70;99.90
60717;DHT22;46566;52.700;6.192;2023-05-24T00:23:35;9.70;99.90
60717;DHT22;46566;52.700;6.192;2023-05-24T00:26:05;9.70;99.90
60717;DHT22;46566;52.700;6.192;2023-05-24T00:28:31;9.70;99.90
60717;DHT22;46566;52.700;6.192;2023-05-24T00:30:57;9.70;99.90
60717;DHT22;46566;52.700;6.192;2023-05-24T00:33:23;9.60;99.90
60717;DHT22;46566;52.700;6.192;2023-05-24T00:35:49;9.60;99.90
60717;DHT22;46566;52.700;6.192;2023-05-24T00:38:24;9.60;99.90
60717;DHT22;46566;52.700;6.192;2023-05-24T00:40:52;9.60;99.90
60717;DHT22;46566;52.700;6.192;2023-05-24T00:43:21;9.50;99.90
60717;DHT22;46566;52.700;6.192;2023-05-24T00:45:47;9.60;99.90
60717;DHT22;46566;52.700;6.192;2023-05-24T00:48:13;9.60;99.90
60717;DHT22;46566;52.700;6.192;2023-05-24T00:50:39;9.60;99.90
60717;DHT22;46566;52.700;6.192;2023-05-24T00:53:06;9.60;99.90
60717;DHT22;46566;52.700;6.192;2023-05-24T00:55:34;9.60;99.90
60717;DHT22;46566;52.700;6.192;2023-05-24T00:58:01;9.60;99.90
60717;DHT22;46566;52.700;6.192;2023-05-24T01:00:28;9.60;99.90
60717;DHT22;46566;52.700;6.192;2023-05-24T01:02:54;9.60;99.90
60717;DHT22;46566;52.700;6.192;2023-05-24T01:05:20;9.60;99.90
60717;DHT22;46566;52.700;6.192;2023-05-24T01:10:38;9.60;99.90
60717;DHT22;46566;52.700;6.192;2023-05-24T01:13:09;9.60;99.90
60717;DHT22;46566;52.700;6.192;2023-05-24T01:15:54;9.60;99.90
60717;DHT22;46566;52.700;6.192;2023-05-24T01:18:28;9.60;99.90
60717;DHT22;46566;52.700;6.192;2023-05-24T01:26:41;9.60;99.90
60717;DHT22;46566;52.700;6.192;2023-05-24T01:29:09;9.60;99.90
60717;DHT22;46566;52.700;6.192;2023-05-24T01:31:37;9.60;99.90
60717;DHT22;46566;52.700;6.192;2023-05-24T01:34:02;9.60;99.90
60717;DHT22;46566;52.700;6.192;2023-05-24T01:36:28;9.60;99.90
60717;DHT22;46566;52.700;6.192;2023-05-24T01:38:54;9.60;99.90
60717;DHT22;46566;52.700;6.192;2023-05-24T01:41:30;9.60;99.90
60717;DHT22;46566;52.700;6.192;2023-05-24T01:44:12;9.60;99.90
60717;DHT22;46566;52.700;6.192;2023-05-24T01:46:39;9.60;99.90
60717;DHT22;46566;52.700;6.192;2023-05-24T01:51:59;9.60;99.90
60717;DHT22;46566;52.700;6.192;2023-05-24T01:54:30;9.60;99.90
60717;DHT22;46566;52.700;6.192;2023-05-24T01:56:58;9.60;99.90
60717;DHT22;46566;52.700;6.192;2023-05-24T01:59:27;9.60;99.90
60717;DHT22;46566;52.700;6.192;2023-05-24T02:01:53;9.70;99.90
60717;DHT22;46566;52.700;6.192;2023-05-24T02:04:19;9.60;99.90
60717;DHT22;46566;52.700;6.192;2023-05-24T02:06:45;9.60;99.90
60717;DHT22;46566;52.700;6.192;2023-05-24T02:09:10;9.70;99.90
60717;DHT22;46566;52.700;6.192;2023-05-24T02:11:36;9.60;99.90
60717;DHT22;46566;52.700;6.192;2023-05-24T02:14:02;9.60;99.90
60717;DHT22;46566;52.700;6.192;2023-05-24T02:16:28;9.60;99.90
60717;DHT22;46566;52.700;6.192;2023-05-24T02:18:56;9.60;99.90
60717;DHT22;46566;52.700;6.192;2023-05-24T02:21:22;9.60;99.90
60717;DHT22;46566;52.700;6.192;2023-05-24T02:23:51;9.60;99.90
60717;DHT22;46566;52.700;6.192;2023-05-24T02:26:17;9.50;99.90
60717;DHT22;46566;52.700;6.192;2023-05-24T02:28:43;9.50;99.90
60717;DHT22;46566;52.700;6.192;2023-05-24T02:31:09;9.50;99.90
60717;DHT22;46566;52.700;6.192;2023-05-24T02:33:35;9.50;99.90
60717;DHT22;46566;52.700;6.192;2023-05-24T02:36:01;9.50;99.90
60717;DHT22;46566;52.700;6.192;2023-05-24T02:38:27;9.40;99.90
60717;DHT22;46566;52.700;6.192;2023-05-24T02:40:52;9.50;99.90
60717;DHT22;46566;52.700;6.192;2023-05-24T02:43:18;9.40;99.90
60717;DHT22;46566;52.700;6.192;2023-05-24T02:45:44;9.40;99.90
60717;DHT22;46566;52.700;6.192;2023-05-24T02:48:10;9.40;99.90
60717;DHT22;46566;52.700;6.192;2023-05-24T02:50:35;9.40;99.90
60717;DHT22;46566;52.700;6.192;2023-05-24T02:53:01;9.40;99.90
60717;DHT22;46566;52.700;6.192;2023-05-24T02:55:27;9.30;99.90
60717;DHT22;46566;52.700;6.192;2023-05-24T02:57:54;9.30;99.90
60717;DHT22;46566;52.700;6.192;2023-05-24T03:00:20;9.30;99.90
60717;DHT22;46566;52.700;6.192;2023-05-24T03:02:46;9.20;99.90
60717;DHT22;46566;52.700;6.192;2023-05-24T03:05:13;9.30;99.90
60717;DHT22;46566;52.700;6.192;2023-05-24T03:07:38;9.20;99.90
60717;DHT22;46566;52.700;6.192;2023-05-24T03:10:05;9.20;99.90
60717;DHT22;46566;52.700;6.192;2023-05-24T03:12:31;9.20;99.90
60717;DHT22;46566;52.700;6.192;2023-05-24T03:14:57;9.20;99.90
60717;DHT22;46566;52.700;6.192;2023-05-24T03:17:22;9.20;99.90
60717;DHT22;46566;52.700;6.192;2023-05-24T03:19:48;9.10;99.90
60717;DHT22;46566;52.700;6.192;2023-05-24T03:22:14;9.10;99.90
60717;DHT22;46566;52.700;6.192;2023-05-24T03:24:40;9.10;99.90
60717;DHT22;46566;52.700;6.192;2023-05-24T03:27:06;9.10;99.90
60717;DHT22;46566;52.700;6.192;2023-05-24T03:29:33;9.10;99.90
60717;DHT22;46566;52.700;6.192;2023-05-24T03:31:58;9.10;99.90
60717;DHT22;46566;52.700;6.192;2023-05-24T03:34:24;9.10;99.90
60717;DHT22;46566;52.700;6.192;2023-05-24T03:36:51;9.10;99.90
60717;DHT22;46566;52.700;6.192;2023-05-24T03:39:17;9.10;99.90
60717;DHT22;46566;52.700;6.192;2023-05-24T03:42:09;9.00;99.90
60717;DHT22;46566;52.700;6.192;2023-05-24T03:44:35;9.00;99.90
60717;DHT22;46566;52.700;6.192;2023-05-24T03:47:01;9.00;99.90
60717;DHT22;46566;52.700;6.192;2023-05-24T03:49:28;9.00;99.90
60717;DHT22;46566;52.700;6.192;2023-05-24T03:51:54;9.00;99.90
60717;DHT22;46566;52.700;6.192;2023-05-24T03:54:20;9.00;99.90
60717;DHT22;46566;52.700;6.192;2023-05-24T03:56:46;9.00;99.90
60717;DHT22;46566;52.700;6.192;2023-05-24T03:59:11;9.00;99.90
60717;DHT22;46566;52.700;6.192;2023-05-24T04:01:38;9.00;99.90
60717;DHT22;46566;52.700;6.192;2023-05-24T04:04:03;9.00;99.90
60717;DHT22;46566;52.700;6.192;2023-05-24T04:06:29;9.00;99.90
60717;DHT22;46566;52.700;6.192;2023-05-24T04:08:58;9.00;99.90
60717;DHT22;46566;52.700;6.192;2023-05-24T04:11:24;9.00;99.90
60717;DHT22;46566;52.700;6.192;2023-05-24T04:13:53;9.00;99.90
60717;DHT22;46566;52.700;6.192;2023-05-24T04:16:21;9.00;99.90
60717;DHT22;46566;52.700;6.192;2023-05-24T04:18:49;9.00;99.90
60717;DHT22;46566;52.700;6.192;2023-05-24T04:21:16;9.00;99.90
60717;DHT22;46566;52.700;6.192;2023-05-24T04:23:41;9.00;99.90
60717;DHT22;46566;52.700;6.192;2023-05-24T04:26:07;9.00;99.90
60717;DHT22;46566;52.700;6.192;2023-05-24T04:28:35;9.00;99.90
60717;DHT22;46566;52.700;6.192;2023-05-24T04:31:04;9.10;99.90
60717;DHT22;46566;52.700;6.192;2023-05-24T04:33:31;9.10;99.90
60717;DHT22;46566;52.700;6.192;2023-05-24T04:35:57;9.10;99.90
60717;DHT22;46566;52.700;6.192;2023-05-24T04:38:27;9.10;99.90
60717;DHT22;46566;52.700;6.192;2023-05-24T04:41:00;9.10;99.90
60717;DHT22;46566;52.700;6.192;2023-05-24T04:43:27;9.10;99.90
60717;DHT22;46566;52.700;6.192;2023-05-24T04:45:53;9.20;99.90
60717;DHT22;46566;52.700;6.192;2023-05-24T04:48:20;9.20;99.90
60717;DHT22;46566;52.700;6.192;2023-05-24T04:50:50;9.20;99.90
60717;DHT22;46566;52.700;6.192;2023-05-24T04:53:15;9.20;99.90
60717;DHT22;46566;52.700;6.192;2023-05-24T04:55:41;9.20;99.90
60717;DHT22;46566;52.700;6.192;2023-05-24T04:58:07;9.20;99.90
60717;DHT22;46566;52.700;6.192;2023-05-24T05:00:33;9.30;99.90
60717;DHT22;46566;52.700;6.192;2023-05-24T05:02:58;9.30;99.90
60717;DHT22;46566;52.700;6.192;2023-05-24T05:05:24;9.30;99.90
60717;DHT22;46566;52.700;6.192;2023-05-24T05:07:50;9.30;99.90
60717;DHT22;46566;52.700;6.192;2023-05-24T05:10:16;9.40;99.90
60717;DHT22;46566;52.700;6.192;2023-05-24T05:12:41;9.40;99.90
60717;DHT22;46566;52.700;6.192;2023-05-24T05:15:07;9.40;99.90
60717;DHT22;46566;52.700;6.192;2023-05-24T05:17:33;9.40;99.90
60717;DHT22;46566;52.700;6.192;2023-05-24T05:19:59;9.50;99.90
60717;DHT22;46566;52.700;6.192;2023-05-24T05:22:25;9.50;99.90
60717;DHT22;46566;52.700;6.192;2023-05-24T05:24:51;9.50;99.90
60717;DHT22;46566;52.700;6.192;2023-05-24T05:27:16;9.60;99.90
60717;DHT22;46566;52.700;6.192;2023-05-24T05:29:42;9.60;99.90
60717;DHT22;46566;52.700;6.192;2023-05-24T05:32:08;9.70;99.90
60717;DHT22;46566;52.700;6.192;2023-05-24T05:34:34;9.70;99.90
60717;DHT22;46566;52.700;6.192;2023-05-24T05:37:00;9.70;99.90
60717;DHT22;46566;52.700;6.192;2023-05-24T05:39:26;9.80;99.90
60717;DHT22;46566;52.700;6.192;2023-05-24T05:41:51;9.80;99.90
60717;DHT22;46566;52.700;6.192;2023-05-24T05:44:17;9.90;99.90
60717;DHT22;46566;52.700;6.192;2023-05-24T05:46:43;10.00;99.90
60717;DHT22;46566;52.700;6.192;2023-05-24T05:49:11;10.10;99.90
60717;DHT22;46566;52.700;6.192;2023-05-24T05:51:38;10.10;99.90
60717;DHT22;46566;52.700;6.192;2023-05-24T05:54:04;10.10;99.90
60717;DHT22;46566;52.700;6.192;2023-05-24T05:56:30;10.20;99.90
60717;DHT22;46566;52.700;6.192;2023-05-24T05:58:56;10.30;99.90
60717;DHT22;46566;52.700;6.192;2023-05-24T06:01:22;10.30;99.90
60717;DHT22;46566;52.700;6.192;2023-05-24T06:03:47;10.30;99.90
60717;DHT22;46566;52.700;6.192;2023-05-24T06:06:13;10.30;99.90
60717;DHT22;46566;52.700;6.192;2023-05-24T06:08:39;10.40;99.90
60717;DHT22;46566;52.700;6.192;2023-05-24T06:11:05;10.40;99.90
60717;DHT22;46566;52.700;6.192;2023-05-24T06:13:31;10.50;99.90
60717;DHT22;46566;52.700;6.192;2023-05-24T06:15:57;10.60;99.90
60717;DHT22;46566;52.700;6.192;2023-05-24T06:18:23;10.60;99.90
60717;DHT22;46566;52.700;6.192;2023-05-24T06:20:50;10.70;99.90
60717;DHT22;46566;52.700;6.192;2023-05-24T06:23:15;10.70;99.90
60717;DHT22;46566;52.700;6.192;2023-05-24T06:25:41;10.70;99.90
60717;DHT22;46566;52.700;6.192;2023-05-24T06:28:08;10.80;99.90
60717;DHT22;46566;52.700;6.192;2023-05-24T06:30:34;10.90;99.90
60717;DHT22;46566;52.700;6.192;2023-05-24T06:33:00;10.90;99.90
60717;DHT22;46566;52.700;6.192;2023-05-24T06:35:26;11.00;99.90
60717;DHT22;46566;52.700;6.192;2023-05-24T06:37:52;11.00;99.90
60717;DHT22;46566;52.700;6.192;2023-05-24T06:40:18;11.00;99.90
60717;DHT22;46566;52.700;6.192;2023-05-24T06:42:43;11.10;99.90
60717;DHT22;46566;52.700;6.192;2023-05-24T06:45:09;11.10;99.90
60717;DHT22;46566;52.700;6.192;2023-05-24T06:47:36;11.20;99.90
60717;DHT22;46566;52.700;6.192;2023-05-24T06:50:02;11.20;99.90
60717;DHT22;46566;52.700;6.192;2023-05-24T06:52:31;11.30;99.90
60717;DHT22;46566;52.700;6.192;2023-05-24T06:54:56;11.30;99.90
60717;DHT22;46566;52.700;6.192;2023-05-24T06:57:22;11.40;99.90
60717;DHT22;46566;52.700;6.192;2023-05-24T06:59:52;11.50;99.90
60717;DHT22;46566;52.700;6.192;2023-05-24T07:02:17;11.60;99.90
60717;DHT22;46566;52.700;6.192;2023-05-24T07:04:43;11.70;99.90
60717;DHT22;46566;52.700;6.192;2023-05-24T07:07:10;11.80;99.90
60717;DHT22;46566;52.700;6.192;2023-05-24T07:09:39;11.90;99.90
60717;DHT22;46566;52.700;6.192;2023-05-24T07:12:05;11.90;99.90
60717;DHT22;46566;52.700;6.192;2023-05-24T07:14:31;12.00;99.90
60717;DHT22;46566;52.700;6.192;2023-05-24T07:16:57;12.10;99.90
60717;DHT22;46566;52.700;6.192;2023-05-24T07:19:24;12.20;99.90
60717;DHT22;46566;52.700;6.192;2023-05-24T07:21:54;12.40;99.90
60717;DHT22;46566;52.700;6.192;2023-05-24T07:24:20;12.50;99.90
60717;DHT22;46566;52.700;6.192;2023-05-24T07:26:47;12.60;99.90
60717;DHT22;46566;52.700;6.192;2023-05-24T07:29:13;12.70;99.90
60717;DHT22;46566;52.700;6.192;2023-05-24T07:31:39;12.70;99.90
60717;DHT22;46566;52.700;6.192;2023-05-24T07:34:04;12.80;99.90
60717;DHT22;46566;52.700;6.192;2023-05-24T07:36:30;12.80;99.90
60717;DHT22;46566;52.700;6.192;2023-05-24T07:38:57;12.90;99.90
60717;DHT22;46566;52.700;6.192;2023-05-24T07:41:27;13.00;99.90
60717;DHT22;46566;52.700;6.192;2023-05-24T07:43:54;13.10;99.90
60717;DHT22;46566;52.700;6.192;2023-05-24T07:46:20;13.10;99.90
60717;DHT22;46566;52.700;6.192;2023-05-24T07:48:46;13.20;99.90
60717;DHT22;46566;52.700;6.192;2023-05-24T07:51:11;13.20;99.90
60717;DHT22;46566;52.700;6.192;2023-05-24T07:53:37;13.30;99.90
60717;DHT22;46566;52.700;6.192;2023-05-24T07:56:03;13.40;99.90
60717;DHT22;46566;52.700;6.192;2023-05-24T07:58:29;13.50;99.90
60717;DHT22;46566;52.700;6.192;2023-05-24T08:00:54;13.60;99.90
60717;DHT22;46566;52.700;6.192;2023-05-24T08:03:20;13.60;99.90
60717;DHT22;46566;52.700;6.192;2023-05-24T08:05:46;13.60;99.90
60717;DHT22;46566;52.700;6.192;2023-05-24T08:08:12;13.60;99.90
60717;DHT22;46566;52.700;6.192;2023-05-24T08:10:38;13.60;99.90
60717;DHT22;46566;52.700;6.192;2023-05-24T08:13:04;13.60;99.90
60717;DHT22;46566;52.700;6.192;2023-05-24T08:15:30;13.70;99.90
60717;DHT22;46566;52.700;6.192;2023-05-24T08:17:55;13.70;99.90
60717;DHT22;46566;52.700;6.192;2023-05-24T08:20:21;13.80;99.90
60717;DHT22;46566;52.700;6.192;2023-05-24T08:22:47;14.00;99.90
60717;DHT22;46566;52.700;6.192;2023-05-24T08:25:13;14.50;99.90
60717;DHT22;46566;52.700;6.192;2023-05-24T08:27:39;14.50;99.90
60717;DHT22;46566;52.700;6.192;2023-05-24T08:30:06;14.70;99.90
60717;DHT22;46566;52.700;6.192;2023-05-24T08:32:32;14.90;99.90
60717;DHT22;46566;52.700;6.192;2023-05-24T08:34:58;15.40;99.90
60717;DHT22;46566;52.700;6.192;2023-05-24T08:37:24;16.20;99.90
60717;DHT22;46566;52.700;6.192;2023-05-24T08:39:50;16.80;99.90
60717;DHT22;46566;52.700;6.192;2023-05-24T08:42:15;16.70;99.90
60717;DHT22;46566;52.700;6.192;2023-05-24T08:44:47;17.00;99.90
60717;DHT22;46566;52.700;6.192;2023-05-24T08:47:15;17.30;99.90
60717;DHT22;46566;52.700;6.192;2023-05-24T08:49:41;17.50;99.90
60717;DHT22;46566;52.700;6.192;2023-05-24T08:52:08;17.30;99.90
60717;DHT22;46566;52.700;6.192;2023-05-24T08:54:36;17.60;99.90
60717;DHT22;46566;52.700;6.192;2023-05-24T08:57:02;18.20;99.90
60717;DHT22;46566;52.700;6.192;2023-05-24T08:59:28;18.80;99.90
60717;DHT22;46566;52.700;6.192;2023-05-24T09:01:54;19.10;88.70
60717;DHT22;46566;52.700;6.192;2023-05-24T09:04:23;19.50;99.90
60717;DHT22;46566;52.700;6.192;2023-05-24T09:06:50;20.00;84.80
60717;DHT22;46566;52.700;6.192;2023-05-24T09:09:17;20.40;73.60
60717;DHT22;46566;52.700;6.192;2023-05-24T09:11:44;20.50;71.90
60717;DHT22;46566;52.700;6.192;2023-05-24T09:14:12;20.70;71.40
60717;DHT22;46566;52.700;6.192;2023-05-24T09:16:38;20.70;74.80
60717;DHT22;46566;52.700;6.192;2023-05-24T09:19:04;20.40;74.50
60717;DHT22;46566;52.700;6.192;2023-05-24T09:21:30;20.00;74.20
60717;DHT22;46566;52.700;6.192;2023-05-24T09:23:57;20.10;68.10
60717;DHT22;46566;52.700;6.192;2023-05-24T09:26:26;20.40;72.80
60717;DHT22;46566;52.700;6.192;2023-05-24T09:28:55;20.40;74.80
60717;DHT22;46566;52.700;6.192;2023-05-24T09:31:32;20.50;74.60
60717;DHT22;46566;52.700;6.192;2023-05-24T09:33:58;20.90;70.00
60717;DHT22;46566;52.700;6.192;2023-05-24T09:36:24;20.70;69.40
60717;DHT22;46566;52.700;6.192;2023-05-24T09:39:05;20.30;69.80
60717;DHT22;46566;52.700;6.192;2023-05-24T09:41:32;19.80;72.50
60717;DHT22;46566;52.700;6.192;2023-05-24T09:43:58;19.40;74.00
60717;DHT22;46566;52.700;6.192;2023-05-24T09:46:24;19.30;96.70
60717;DHT22;46566;52.700;6.192;2023-05-24T09:48:58;19.40;92.20
60717;DHT22;46566;52.700;6.192;2023-05-24T09:51:24;19.60;79.70
60717;DHT22;46566;52.700;6.192;2023-05-24T09:53:55;19.60;72.80
60717;DHT22;46566;52.700;6.192;2023-05-24T09:56:21;19.80;78.60
60717;DHT22;46566;52.700;6.192;2023-05-24T09:58:48;20.20;74.40
60717;DHT22;46566;52.700;6.192;2023-05-24T10:01:14;20.40;70.00
60717;DHT22;46566;52.700;6.192;2023-05-24T10:03:58;20.70;70.80
60717;DHT22;46566;52.700;6.192;2023-05-24T10:06:26;20.70;65.00
60717;DHT22;46566;52.700;6.192;2023-05-24T10:08:54;20.40;69.60
60717;DHT22;46566;52.700;6.192;2023-05-24T10:11:21;20.10;75.00
60717;DHT22;46566;52.700;6.192;2023-05-24T10:13:48;19.90;70.30
60717;DHT22;46566;52.700;6.192;2023-05-24T10:16:14;19.80;70.50
60717;DHT22;46566;52.700;6.192;2023-05-24T10:18:40;19.90;75.00
60717;DHT22;46566;52.700;6.192;2023-05-24T10:21:06;20.00;71.40
60717;DHT22;46566;52.700;6.192;2023-05-24T10:23:35;19.80;69.10
60717;DHT22;46566;52.700;6.192;2023-05-24T10:26:04;19.60;71.20
60717;DHT22;46566;52.700;6.192;2023-05-24T10:28:51;19.50;85.90
60717;DHT22;46566;52.700;6.192;2023-05-24T10:31:24;19.30;76.20
60717;DHT22;46566;52.700;6.192;2023-05-24T10:33:57;19.00;81.70
60717;DHT22;46566;52.700;6.192;2023-05-24T10:36:24;18.80;89.80
60717;DHT22;46566;52.700;6.192;2023-05-24T10:38:53;18.70;79.50
60717;DHT22;46566;52.700;6.192;2023-05-24T10:41:20;18.60;90.40
60717;DHT22;46566;52.700;6.192;2023-05-24T10:43:47;18.50;89.20
60717;DHT22;46566;52.700;6.192;2023-05-24T10:46:14;18.50;80.30
60717;DHT22;46566;52.700;6.192;2023-05-24T10:48:43;18.40;87.60
60717;DHT22;46566;52.700;6.192;2023-05-24T10:51:38;18.50;89.70
60717;DHT22;46566;52.700;6.192;2023-05-24T10:54:15;18.70;89.90
60717;DHT22;46566;52.700;6.192;2023-05-24T10:56:43;18.80;89.40
60717;DHT22;46566;52.700;6.192;2023-05-24T10:59:27;19.00;85.40
60717;DHT22;46566;52.700;6.192;2023-05-24T11:01:54;19.20;77.30
60717;DHT22;46566;52.700;6.192;2023-05-24T11:04:21;19.10;73.40
60717;DHT22;46566;52.700;6.192;2023-05-24T11:06:54;18.90;74.90
60717;DHT22;46566;52.700;6.192;2023-05-24T11:09:21;19.00;82.50
60717;DHT22;46566;52.700;6.192;2023-05-24T11:11:49;19.20;79.20
60717;DHT22;46566;52.700;6.192;2023-05-24T11:14:19;19.40;74.30
60717;DHT22;46566;52.700;6.192;2023-05-24T11:16:48;19.40;74.80
60717;DHT22;46566;52.700;6.192;2023-05-24T11:19:21;19.30;73.00
60717;DHT22;46566;52.700;6.192;2023-05-24T11:21:48;19.10;75.10
60717;DHT22;46566;52.700;6.192;2023-05-24T11:24:18;18.90;76.00
60717;DHT22;46566;52.700;6.192;2023-05-24T11:26:45;18.80;80.80
60717;DHT22;46566;52.700;6.192;2023-05-24T11:29:14;18.70;84.70
60717;DHT22;46566;52.700;6.192;2023-05-24T11:31:56;18.80;80.60
60717;DHT22;46566;52.700;6.192;2023-05-24T11:34:22;18.90;85.80
60717;DHT22;46566;52.700;6.192;2023-05-24T11:36:49;19.00;72.90
60717;DHT22;46566;52.700;6.192;2023-05-24T11:39:17;18.90;77.10
60717;DHT22;46566;52.700;6.192;2023-05-24T11:41:43;18.80;79.10
60717;DHT22;46566;52.700;6.192;2023-05-24T11:44:10;18.60;75.20
60717;DHT22;46566;52.700;6.192;2023-05-24T11:46:37;18.60;78.10
60717;DHT22;46566;52.700;6.192;2023-05-24T11:49:04;18.80;81.80
60717;DHT22;46566;52.700;6.192;2023-05-24T11:51:32;19.10;78.70
60717;DHT22;46566;52.700;6.192;2023-05-24T11:53:58;19.50;75.60
60717;DHT22;46566;52.700;6.192;2023-05-24T11:56:25;19.70;72.80
60717;DHT22;46566;52.700;6.192;2023-05-24T12:01:30;19.70;68.00
60717;DHT22;46566;52.700;6.192;2023-05-24T12:03:56;19.50;69.50
60717;DHT22;46566;52.700;6.192;2023-05-24T12:06:22;19.20;74.70
60717;DHT22;46566;52.700;6.192;2023-05-24T12:08:48;19.00;71.90
60717;DHT22;46566;52.700;6.192;2023-05-24T12:11:14;18.60;70.90
60717;DHT22;46566;52.700;6.192;2023-05-24T12:13:40;18.40;86.90
60717;DHT22;46566;52.700;6.192;2023-05-24T12:16:06;18.50;83.60
60717;DHT22;46566;52.700;6.192;2023-05-24T12:18:33;18.90;77.90
60717;DHT22;46566;52.700;6.192;2023-05-24T12:20:58;19.20;75.10
60717;DHT22;46566;52.700;6.192;2023-05-24T12:23:26;19.40;70.90
60717;DHT22;46566;52.700;6.192;2023-05-24T12:25:57;19.20;73.10
60717;DHT22;46566;52.700;6.192;2023-05-24T12:28:31;18.90;71.80
60717;DHT22;46566;52.700;6.192;2023-05-24T12:30:59;18.70;68.80
60717;DHT22;46566;52.700;6.192;2023-05-24T12:33:25;18.40;69.90
60717;DHT22;46566;52.700;6.192;2023-05-24T12:35:51;18.40;68.50
60717;DHT22;46566;52.700;6.192;2023-05-24T12:38:18;18.50;72.00
60717;DHT22;46566;52.700;6.192;2023-05-24T12:40:49;18.50;70.70
60717;DHT22;46566;52.700;6.192;2023-05-24T12:43:15;18.40;70.20
60717;DHT22;46566;52.700;6.192;2023-05-24T12:45:42;18.30;71.10
60717;DHT22;46566;52.700;6.192;2023-05-24T12:48:08;18.20;68.70
60717;DHT22;46566;52.700;6.192;2023-05-24T12:50:34;18.10;68.60
60717;DHT22;46566;52.700;6.192;2023-05-24T12:52:59;18.00;71.20
60717;DHT22;46566;52.700;6.192;2023-05-24T12:55:26;18.00;68.80
60717;DHT22;46566;52.700;6.192;2023-05-24T12:57:53;18.00;71.70
60717;DHT22;46566;52.700;6.192;2023-05-24T13:00:25;18.00;72.50
60717;DHT22;46566;52.700;6.192;2023-05-24T13:02:52;17.90;68.80
60717;DHT22;46566;52.700;6.192;2023-05-24T13:05:21;17.90;68.30
60717;DHT22;46566;52.700;6.192;2023-05-24T13:07:50;17.90;71.60
60717;DHT22;46566;52.700;6.192;2023-05-24T13:10:15;17.90;69.90
60717;DHT22;46566;52.700;6.192;2023-05-24T13:12:41;17.80;73.00
60717;DHT22;46566;52.700;6.192;2023-05-24T13:15:08;17.60;68.70
60717;DHT22;46566;52.700;6.192;2023-05-24T13:17:34;17.40;68.80
60717;DHT22;46566;52.700;6.192;2023-05-24T13:20:02;17.30;69.20
60717;DHT22;46566;52.700;6.192;2023-05-24T13:22:30;17.20;70.10
60717;DHT22;46566;52.700;6.192;2023-05-24T13:24:56;17.10;69.50
60717;DHT22;46566;52.700;6.192;2023-05-24T13:27:22;17.20;75.50
60717;DHT22;46566;52.700;6.192;2023-05-24T13:29:48;17.20;73.60
60717;DHT22;46566;52.700;6.192;2023-05-24T13:32:14;17.20;73.50
60717;DHT22;46566;52.700;6.192;2023-05-24T13:34:40;17.20;77.80
60717;DHT22;46566;52.700;6.192;2023-05-24T13:37:06;17.30;79.90
60717;DHT22;46566;52.700;6.192;2023-05-24T13:39:33;17.40;86.20
60717;DHT22;46566;52.700;6.192;2023-05-24T13:42:00;17.40;83.60
60717;DHT22;46566;52.700;6.192;2023-05-24T13:44:26;17.40;72.50
60717;DHT22;46566;52.700;6.192;2023-05-24T13:46:52;17.30;74.00
60717;DHT22;46566;52.700;6.192;2023-05-24T13:49:18;17.30;75.50
60717;DHT22;46566;52.700;6.192;2023-05-24T13:51:44;17.30;76.60
60717;DHT22;46566;52.700;6.192;2023-05-24T13:54:11;17.30;76.40
60717;DHT22;46566;52.700;6.192;2023-05-24T13:56:37;17.30;75.10
60717;DHT22;46566;52.700;6.192;2023-05-24T13:59:05;17.20;76.40
60717;DHT22;46566;52.700;6.192;2023-05-24T14:01:32;17.20;77.80
60717;DHT22;46566;52.700;6.192;2023-05-24T14:03:59;17.20;78.90
60717;DHT22;46566;52.700;6.192;2023-05-24T14:06:25;17.20;79.40
60717;DHT22;46566;52.700;6.192;2023-05-24T14:08:51;17.20;80.90
60717;DHT22;46566;52.700;6.192;2023-05-24T14:11:16;17.30;85.60
60717;DHT22;46566;52.700;6.192;2023-05-24T14:13:43;17.30;81.90
60717;DHT22;46566;52.700;6.192;2023-05-24T14:16:09;17.40;85.70
60717;DHT22;46566;52.700;6.192;2023-05-24T14:18:35;17.40;88.70
60717;DHT22;46566;52.700;6.192;2023-05-24T14:21:01;17.30;79.60
60717;DHT22;46566;52.700;6.192;2023-05-24T14:23:27;17.10;77.40
60717;DHT22;46566;52.700;6.192;2023-05-24T14:25:56;17.10;81.40
60717;DHT22;46566;52.700;6.192;2023-05-24T14:28:22;17.10;83.30
60717;DHT22;46566;52.700;6.192;2023-05-24T14:30:48;17.10;81.70
60717;DHT22;46566;52.700;6.192;2023-05-24T14:33:14;17.10;81.90
60717;DHT22;46566;52.700;6.192;2023-05-24T14:35:40;17.20;86.20
60717;DHT22;46566;52.700;6.192;2023-05-24T14:38:06;17.20;91.60
60717;DHT22;46566;52.700;6.192;2023-05-24T14:40:33;17.20;85.20
60717;DHT22;46566;52.700;6.192;2023-05-24T14:43:04;17.20;94.80
60717;DHT22;46566;52.700;6.192;2023-05-24T14:45:30;17.30;94.00
60717;DHT22;46566;52.700;6.192;2023-05-24T14:47:56;17.40;94.80
60717;DHT22;46566;52.700;6.192;2023-05-24T14:50:22;17.40;92.30
60717;DHT22;46566;52.700;6.192;2023-05-24T14:52:48;17.30;86.90
60717;DHT22;46566;52.700;6.192;2023-05-24T14:55:14;17.30;90.10
60717;DHT22;46566;52.700;6.192;2023-05-24T14:57:40;17.30;91.80
60717;DHT22;46566;52.700;6.192;2023-05-24T15:00:07;17.30;91.20
60717;DHT22;46566;52.700;6.192;2023-05-24T15:02:33;17.20;90.30
60717;DHT22;46566;52.700;6.192;2023-05-24T15:05:00;17.20;92.40
60717;DHT22;46566;52.700;6.192;2023-05-24T15:07:25;17.20;92.60
60717;DHT22;46566;52.700;6.192;2023-05-24T15:09:51;17.30;93.30
60717;DHT22;46566;52.700;6.192;2023-05-24T15:12:17;17.40;91.00
60717;DHT22;46566;52.700;6.192;2023-05-24T15:14:45;17.60;91.00
60717;DHT22;46566;52.700;6.192;2023-05-24T15:17:11;17.80;87.00
60717;DHT22;46566;52.700;6.192;2023-05-24T15:19:37;17.90;77.30
60717;DHT22;46566;52.700;6.192;2023-05-24T15:22:03;18.10;83.10
60717;DHT22;46566;52.700;6.192;2023-05-24T15:24:29;18.20;78.10
60717;DHT22;46566;52.700;6.192;2023-05-24T15:26:55;18.20;74.40
60717;DHT22;46566;52.700;6.192;2023-05-24T15:29:22;18.10;75.70
60717;DHT22;46566;52.700;6.192;2023-05-24T15:31:51;18.00;77.40
60717;DHT22;46566;52.700;6.192;2023-05-24T15:34:16;18.00;76.60
60717;DHT22;46566;52.700;6.192;2023-05-24T15:36:44;18.00;81.60
60717;DHT22;46566;52.700;6.192;2023-05-24T15:39:10;18.00;78.00
60717;DHT22;46566;52.700;6.192;2023-05-24T15:41:36;18.00;77.90
60717;DHT22;46566;52.700;6.192;2023-05-24T15:44:02;17.90;77.00
60717;DHT22;46566;52.700;6.192;2023-05-24T15:46:34;17.70;77.70
60717;DHT22;46566;52.700;6.192;2023-05-24T15:48:59;17.70;83.20
60717;DHT22;46566;52.700;6.192;2023-05-24T15:51:25;17.50;83.90